sensor_id;sensor_type;location;lat;lon;timestamp;pressure;altitude;pressure_sealevel;temperature;humidity
13367;BME280;6752;52.612;13.630;2023-07-31T00:02:30;100414.65;;;15.61;100.00
13367;BME280;6752;52.612;13.630;2023-07-31T00:07:32;100408.19;;;15.61;100.00
13367;BME280;6752;52.612;13.630;2023-07-31T00:12:35;100412.99;;;15.60;100.00
13367;BME280;6752;52.612;13.630;2023-07-31T00:17:37;100412.50;;;15.63;100.00
13367;BME280;6752;52.612;13.630;2023-07-31T00:22:39;100408.47;;;15.49;100.00
13367;BME280;6752;52.612;13.630;2023-07-31T00:27:42;100395.25;;;15.32;100.00
13367;BME280;6752;52.612;13.630;2023-07-31T00:32:47;100395.62;;;15.27;100.00
13367;BME280;6752;52.612;13.630;2023-07-31T00:37:49;100390.19;;;15.19;100.00
13367;BME280;6752;52.612;13.630;2023-07-31T00:42:51;100380.81;;;15.15;100.00
13367;BME280;6752;52.612;13.630;2023-07-31T00:47:54;100382.83;;;15.14;100.00
13367;BME280;6752;52.612;13.630;2023-07-31T00:52:56;100377.19;;;15.12;100.00
13367;BME280;6752;52.612;13.630;2023-07-31T00:57:59;100370.97;;;15.19;100.00
13367;BME280;6752;52.612;13.630;2023-07-31T01:03:01;100366.41;;;15.05;100.00
13367;BME280;6752;52.612;13.630;2023-07-31T01:08:12;100371.39;;;15.08;100.00
13367;BME280;6752;52.612;13.630;2023-07-31T01:13:08;100367.42;;;15.10;100.00
13367;BME280;6752;52.612;13.630;2023-07-31T01:18:11;100365.79;;;15.12;100.00
13367;BME280;6752;52.612;13.630;2023-07-31T01:23:35;100357.26;;;14.95;100.00
13367;BME280;6752;52.612;13.630;2023-07-31T01:28:38;100356.63;;;15.01;100.00
13367;BME280;6752;52.612;13.630;2023-07-31T01:33:36;100354.59;;;15.02;100.00
13367;BME280;6752;52.612;13.630;2023-07-31T01:38:38;100356.75;;;15.14;100.00
13367;BME280;6752;52.612;13.630;2023-07-31T01:43:40;100355.56;;;15.04;100.00
13367;BME280;6752;52.612;13.630;2023-07-31T01:48:43;100356.27;;;15.06;100.00
13367;BME280;6752;52.612;13.630;2023-07-31T01:53:45;100361.63;;;15.07;100.00
13367;BME280;6752;52.612;13.630;2023-07-31T01:58:48;100364.98;;;15.14;100.00
13367;BME280;6752;52.612;13.630;2023-07-31T02:03:50;100355.80;;;15.14;100.00
13367;BME280;6752;52.612;13.630;2023-07-31T02:08:52;100358.08;;;15.09;100.00
13367;BME280;6752;52.612;13.630;2023-07-31T02:13:55;100356.05;;;15.23;100.00
13367;BME280;6752;52.612;13.630;2023-07-31T02:18:57;100346.28;;;15.22;100.00
13367;BME280;6752;52.612;13.630;2023-07-31T02:23:59;100342.64;;;15.29;100.00
13367;BME280;6752;52.612;13.630;2023-07-31T02:29:02;100338.94;;;15.43;100.00
13367;BME280;6752;52.612;13.630;2023-07-31T02:34:04;100331.28;;;15.48;100.00
13367;BME280;6752;52.612;13.630;2023-07-31T02:39:06;100332.69;;;15.53;100.00
13367;BME280;6752;52.612;13.630;2023-07-31T02:44:09;100318.96;;;15.53;100.00
13367;BME280;6752;52.612;13.630;2023-07-31T02:49:11;100323.40;;;15.40;100.00
13367;BME280;6752;52.612;13.630;2023-07-31T02:54:14;100328.46;;;15.24;100.00
13367;BME280;6752;52.612;13.630;2023-07-31T02:59:16;100324.63;;;15.25;100.00
13367;BME280;6752;52.612;13.630;2023-07-31T03:04:18;100318.17;;;15.25;100.00
13367;BME280;6752;52.612;13.630;2023-07-31T03:09:21;100311.91;;;15.46;100.00
13367;BME280;6752;52.612;13.630;2023-07-31T03:14:23;100312.92;;;15.53;100.00
13367;BME280;6752;52.612;13.630;2023-07-31T03:19:25;100314.09;;;15.60;100.00
13367;BME280;6752;52.612;13.630;2023-07-31T03:24:28;100309.36;;;15.55;100.00
13367;BME280;6752;52.612;13.630;2023-07-31T03:29:30;100304.80;;;15.50;100.00
13367;BME280;6752;52.612;13.630;2023-07-31T03:34:32;100300.56;;;15.53;100.00
13367;BME280;6752;52.612;13.630;2023-07-31T03:39:35;100299.86;;;15.36;100.00
13367;BME280;6752;52.612;13.630;2023-07-31T03:44:37;100295.45;;;15.35;100.00
13367;BME280;6752;52.612;13.630;2023-07-31T03:49:40;100294.69;;;15.24;100.00
13367;BME280;6752;52.612;13.630;2023-07-31T03:54:42;100290.72;;;15.25;100.00
13367;BME280;6752;52.612;13.630;2023-07-31T03:59:44;100286.09;;;15.31;100.00
13367;BME280;6752;52.612;13.630;2023-07-31T04:04:47;100274.53;;;15.26;100.00
13367;BME280;6752;52.612;13.630;2023-07-31T04:09:49;100281.09;;;15.23;100.00
13367;BME280;6752;52.612;13.630;2023-07-31T04:14:51;100274.71;;;15.33;100.00
13367;BME280;6752;52.612;13.630;2023-07-31T04:19:54;100262.62;;;15.32;100.00
13367;BME280;6752;52.612;13.630;2023-07-31T04:24:56;100265.38;;;15.34;100.00
13367;BME280;6752;52.612;13.630;2023-07-31T04:29:58;100266.00;;;15.39;100.00
13367;BME280;6752;52.612;13.630;2023-07-31T04:35:01;100265.65;;;15.49;100.00
13367;BME280;6752;52.612;13.630;2023-07-31T04:40:03;100255.75;;;15.48;100.00
13367;BME280;6752;52.612;13.630;2023-07-31T04:45:06;100253.84;;;15.51;100.00
13367;BME280;6752;52.612;13.630;2023-07-31T04:50:08;100250.50;;;15.60;100.00
13367;BME280;6752;52.612;13.630;2023-07-31T04:55:10;100245.36;;;15.68;100.00
13367;BME280;6752;52.612;13.630;2023-07-31T05:00:13;100247.72;;;15.73;100.00
13367;BME280;6752;52.612;13.630;2023-07-31T05:05:15;100247.00;;;15.67;100.00
13367;BME280;6752;52.612;13.630;2023-07-31T05:10:17;100249.89;;;15.69;100.00
13367;BME280;6752;52.612;13.630;2023-07-31T05:15:20;100251.52;;;15.86;100.00
13367;BME280;6752;52.612;13.630;2023-07-31T05:20:22;100246.60;;;15.93;100.00
13367;BME280;6752;52.612;13.630;2023-07-31T05:25:24;100246.93;;;16.06;100.00
13367;BME280;6752;52.612;13.630;2023-07-31T05:30:29;100245.13;;;16.04;100.00
13367;BME280;6752;52.612;13.630;2023-07-31T05:35:29;100240.16;;;16.32;100.00
13367;BME280;6752;52.612;13.630;2023-07-31T05:40:32;100233.63;;;16.43;100.00
13367;BME280;6752;52.612;13.630;2023-07-31T05:45:34;100230.86;;;16.40;100.00
13367;BME280;6752;52.612;13.630;2023-07-31T05:50:36;100231.37;;;16.32;100.00
13367;BME280;6752;52.612;13.630;2023-07-31T05:55:39;100222.69;;;16.27;100.00
13367;BME280;6752;52.612;13.630;2023-07-31T06:00:41;100229.22;;;16.39;100.00
13367;BME280;6752;52.612;13.630;2023-07-31T06:05:43;100225.38;;;16.48;100.00
13367;BME280;6752;52.612;13.630;2023-07-31T06:10:46;100224.41;;;16.48;100.00
13367;BME280;6752;52.612;13.630;2023-07-31T06:15:48;100223.32;;;16.52;100.00
13367;BME280;6752;52.612;13.630;2023-07-31T06:20:50;100222.67;;;16.61;100.00
13367;BME280;6752;52.612;13.630;2023-07-31T06:25:53;100222.12;;;16.59;100.00
13367;BME280;6752;52.612;13.630;2023-07-31T06:30:55;100229.46;;;16.79;100.00
13367;BME280;6752;52.612;13.630;2023-07-31T06:35:58;100225.19;;;16.72;100.00
13367;BME280;6752;52.612;13.630;2023-07-31T06:41:00;100211.88;;;16.80;100.00
13367;BME280;6752;52.612;13.630;2023-07-31T06:46:05;100211.05;;;16.85;100.00
13367;BME280;6752;52.612;13.630;2023-07-31T06:51:07;100217.25;;;17.19;100.00
13367;BME280;6752;52.612;13.630;2023-07-31T06:56:10;100211.73;;;16.89;100.00
13367;BME280;6752;52.612;13.630;2023-07-31T07:01:12;100205.98;;;17.06;100.00
13367;BME280;6752;52.612;13.630;2023-07-31T07:06:14;100201.55;;;17.20;100.00
13367;BME280;6752;52.612;13.630;2023-07-31T07:11:17;100200.03;;;16.98;100.00
13367;BME280;6752;52.612;13.630;2023-07-31T07:16:19;100206.94;;;17.08;100.00
13367;BME280;6752;52.612;13.630;2023-07-31T07:21:22;100201.30;;;17.03;100.00
13367;BME280;6752;52.612;13.630;2023-07-31T07:26:24;100201.98;;;17.07;100.00
13367;BME280;6752;52.612;13.630;2023-07-31T07:31:26;100206.09;;;17.20;100.00
13367;BME280;6752;52.612;13.630;2023-07-31T07:36:29;100196.05;;;17.15;100.00
13367;BME280;6752;52.612;13.630;2023-07-31T07:41:31;100192.34;;;17.28;100.00
13367;BME280;6752;52.612;13.630;2023-07-31T07:46:33;100190.27;;;17.19;100.00
13367;BME280;6752;52.612;13.630;2023-07-31T07:51:36;100184.88;;;17.41;100.00
13367;BME280;6752;52.612;13.630;2023-07-31T07:56:38;100178.37;;;17.59;100.00
13367;BME280;6752;52.612;13.630;2023-07-31T08:01:40;100175.20;;;17.59;100.00
13367;BME280;6752;52.612;13.630;2023-07-31T08:06:43;100175.89;;;17.57;100.00
13367;BME280;6752;52.612;13.630;2023-07-31T08:11:45;100183.60;;;17.50;100.00
13367;BME280;6752;52.612;13.630;2023-07-31T08:16:48;100181.14;;;17.44;100.00
13367;BME280;6752;52.612;13.630;2023-07-31T08:21:52;100173.98;;;17.98;100.00
13367;BME280;6752;52.612;13.630;2023-07-31T08:26:55;100164.73;;;18.06;100.00
13367;BME280;6752;52.612;13.630;2023-07-31T08:31:57;100153.53;;;18.12;100.00
13367;BME280;6752;52.612;13.630;2023-07-31T08:36:59;100162.27;;;17.97;100.00
13367;BME280;6752;52.612;13.630;2023-07-31T08:42:02;100152.64;;;18.21;100.00
13367;BME280;6752;52.612;13.630;2023-07-31T08:47:04;100151.16;;;18.14;100.00
13367;BME280;6752;52.612;13.630;2023-07-31T08:52:07;100156.09;;;17.90;100.00
13367;BME280;6752;52.612;13.630;2023-07-31T08:57:09;100161.33;;;17.92;100.00
13367;BME280;6752;52.612;13.630;2023-07-31T09:02:11;100152.08;;;18.00;100.00
13367;BME280;6752;52.612;13.630;2023-07-31T09:07:14;100162.50;;;17.78;100.00
13367;BME280;6752;52.612;13.630;2023-07-31T09:12:16;100172.33;;;17.97;100.00
13367;BME280;6752;52.612;13.630;2023-07-31T09:17:29;100166.02;;;18.26;100.00
13367;BME280;6752;52.612;13.630;2023-07-31T09:22:34;100159.42;;;18.41;100.00
13367;BME280;6752;52.612;13.630;2023-07-31T09:27:49;100156.83;;;18.63;100.00
13367;BME280;6752;52.612;13.630;2023-07-31T09:32:52;100144.69;;;18.64;100.00
13367;BME280;6752;52.612;13.630;2023-07-31T09:37:55;100139.43;;;18.65;100.00
13367;BME280;6752;52.612;13.630;2023-07-31T09:43:00;100144.31;;;18.78;100.00
13367;BME280;6752;52.612;13.630;2023-07-31T09:47:58;100148.89;;;18.51;100.00
13367;BME280;6752;52.612;13.630;2023-07-31T09:53:01;100145.69;;;18.56;100.00
13367;BME280;6752;52.612;13.630;2023-07-31T09:58:04;100147.19;;;18.11;100.00
13367;BME280;6752;52.612;13.630;2023-07-31T10:03:09;100142.86;;;18.19;100.00
13367;BME280;6752;52.612;13.630;2023-07-31T10:08:11;100140.66;;;18.19;100.00
13367;BME280;6752;52.612;13.630;2023-07-31T10:13:13;100139.55;;;18.20;100.00
13367;BME280;6752;52.612;13.630;2023-07-31T10:18:15;100138.87;;;18.41;100.00
13367;BME280;6752;52.612;13.630;2023-07-31T10:23:18;100132.39;;;18.41;100.00
13367;BME280;6752;52.612;13.630;2023-07-31T10:28:20;100122.47;;;18.15;100.00
13367;BME280;6752;52.612;13.630;2023-07-31T10:33:22;100116.94;;;18.23;100.00
13367;BME280;6752;52.612;13.630;2023-07-31T10:38:25;100125.86;;;18.05;100.00
13367;BME280;6752;52.612;13.630;2023-07-31T10:43:27;100128.23;;;18.24;100.00
13367;BME280;6752;52.612;13.630;2023-07-31T10:48:33;100129.11;;;18.36;100.00
13367;BME280;6752;52.612;13.630;2023-07-31T10:53:32;100119.55;;;18.24;100.00
13367;BME280;6752;52.612;13.630;2023-07-31T10:58:34;100116.56;;;18.13;100.00
13367;BME280;6752;52.612;13.630;2023-07-31T11:03:43;100110.48;;;18.57;100.00
13367;BME280;6752;52.612;13.630;2023-07-31T11:08:48;100095.07;;;18.88;100.00
13367;BME280;6752;52.612;13.630;2023-07-31T11:13:51;100081.25;;;19.70;100.00
13367;BME280;6752;52.612;13.630;2023-07-31T11:18:53;100085.39;;;20.12;100.00
13367;BME280;6752;52.612;13.630;2023-07-31T11:23:58;100096.45;;;20.22;100.00
13367;BME280;6752;52.612;13.630;2023-07-31T11:29:00;100076.21;;;20.24;100.00
13367;BME280;6752;52.612;13.630;2023-07-31T11:34:08;100075.74;;;20.89;100.00
13367;BME280;6752;52.612;13.630;2023-07-31T11:39:11;100076.39;;;20.58;100.00
13367;BME280;6752;52.612;13.630;2023-07-31T11:44:13;100074.98;;;20.51;100.00
13367;BME280;6752;52.612;13.630;2023-07-31T11:49:15;100063.69;;;20.73;100.00
13367;BME280;6752;52.612;13.630;2023-07-31T11:54:18;100065.41;;;20.53;100.00
13367;BME280;6752;52.612;13.630;2023-07-31T11:59:20;100053.99;;;20.41;100.00
13367;BME280;6752;52.612;13.630;2023-07-31T12:04:23;100069.48;;;20.39;100.00
13367;BME280;6752;52.612;13.630;2023-07-31T12:09:25;100067.24;;;20.22;100.00
13367;BME280;6752;52.612;13.630;2023-07-31T12:14:27;100061.92;;;20.26;100.00
13367;BME280;6752;52.612;13.630;2023-07-31T12:19:32;100055.29;;;20.34;100.00
13367;BME280;6752;52.612;13.630;2023-07-31T12:24:35;100043.46;;;20.21;100.00
13367;BME280;6752;52.612;13.630;2023-07-31T12:29:37;100037.09;;;20.30;100.00
13367;BME280;6752;52.612;13.630;2023-07-31T12:34:42;100042.94;;;20.38;100.00
13367;BME280;6752;52.612;13.630;2023-07-31T12:39:44;100035.33;;;20.28;100.00
13367;BME280;6752;52.612;13.630;2023-07-31T12:44:47;100033.09;;;20.39;100.00
13367;BME280;6752;52.612;13.630;2023-07-31T12:49:49;100023.14;;;20.29;100.00
13367;BME280;6752;52.612;13.630;2023-07-31T12:54:52;100026.72;;;20.42;100.00
13367;BME280;6752;52.612;13.630;2023-07-31T12:59:54;100014.75;;;20.52;100.00
13367;BME280;6752;52.612;13.630;2023-07-31T13:04:56;100016.20;;;20.57;100.00
13367;BME280;6752;52.612;13.630;2023-07-31T13:09:59;100001.52;;;20.66;100.00
13367;BME280;6752;52.612;13.630;2023-07-31T13:15:01;100002.92;;;20.73;100.00
13367;BME280;6752;52.612;13.630;2023-07-31T13:20:03;99999.10;;;20.45;100.00
13367;BME280;6752;52.612;13.630;2023-07-31T13:25:06;100004.44;;;20.30;100.00
13367;BME280;6752;52.612;13.630;2023-07-31T13:30:08;100004.40;;;20.16;100.00
13367;BME280;6752;52.612;13.630;2023-07-31T13:35:10;100010.81;;;19.83;100.00
13367;BME280;6752;52.612;13.630;2023-07-31T13:40:13;99991.70;;;19.96;100.00
13367;BME280;6752;52.612;13.630;2023-07-31T13:45:15;99993.42;;;20.62;100.00
13367;BME280;6752;52.612;13.630;2023-07-31T13:50:17;99986.48;;;20.92;100.00
13367;BME280;6752;52.612;13.630;2023-07-31T13:55:20;99980.54;;;20.85;100.00
13367;BME280;6752;52.612;13.630;2023-07-31T14:00:22;99978.38;;;20.82;100.00
13367;BME280;6752;52.612;13.630;2023-07-31T14:05:25;99979.13;;;21.08;100.00
13367;BME280;6752;52.612;13.630;2023-07-31T14:10:27;99978.12;;;21.02;100.00
13367;BME280;6752;52.612;13.630;2023-07-31T14:15:29;99952.84;;;21.40;100.00
13367;BME280;6752;52.612;13.630;2023-07-31T14:20:32;99961.16;;;21.26;100.00
13367;BME280;6752;52.612;13.630;2023-07-31T14:25:34;99958.48;;;21.42;100.00
13367;BME280;6752;52.612;13.630;2023-07-31T14:30:36;99959.38;;;21.51;100.00
13367;BME280;6752;52.612;13.630;2023-07-31T14:35:39;99952.05;;;21.23;100.00
13367;BME280;6752;52.612;13.630;2023-07-31T14:40:41;99939.75;;;21.16;100.00
13367;BME280;6752;52.612;13.630;2023-07-31T14:45:43;99943.25;;;21.28;100.00
13367;BME280;6752;52.612;13.630;2023-07-31T14:50:46;99929.53;;;21.21;100.00
13367;BME280;6752;52.612;13.630;2023-07-31T14:55:48;99924.62;;;21.38;100.00
13367;BME280;6752;52.612;13.630;2023-07-31T15:00:50;99920.73;;;21.32;100.00
13367;BME280;6752;52.612;13.630;2023-07-31T15:05:53;99915.83;;;21.20;100.00
13367;BME280;6752;52.612;13.630;2023-07-31T15:10:55;99911.32;;;21.17;100.00
13367;BME280;6752;52.612;13.630;2023-07-31T15:15:58;99910.72;;;21.13;100.00
13367;BME280;6752;52.612;13.630;2023-07-31T15:21:00;99902.13;;;21.19;100.00
13367;BME280;6752;52.612;13.630;2023-07-31T15:26:02;99896.52;;;21.31;100.00
13367;BME280;6752;52.612;13.630;2023-07-31T15:31:05;99895.47;;;21.27;99.66
13367;BME280;6752;52.612;13.630;2023-07-31T15:36:07;99889.89;;;21.09;100.00
13367;BME280;6752;52.612;13.630;2023-07-31T15:41:09;99875.45;;;21.48;100.00
13367;BME280;6752;52.612;13.630;2023-07-31T15:46:12;99884.19;;;21.55;99.66
13367;BME280;6752;52.612;13.630;2023-07-31T15:51:14;99870.60;;;21.43;100.00
13367;BME280;6752;52.612;13.630;2023-07-31T15:56:16;99871.81;;;21.25;100.00
13367;BME280;6752;52.612;13.630;2023-07-31T16:01:19;99874.80;;;21.15;100.00
13367;BME280;6752;52.612;13.630;2023-07-31T16:06:21;99869.88;;;21.12;100.00
13367;BME280;6752;52.612;13.630;2023-07-31T16:11:23;99867.41;;;21.10;100.00
13367;BME280;6752;52.612;13.630;2023-07-31T16:16:26;99859.23;;;21.17;100.00
13367;BME280;6752;52.612;13.630;2023-07-31T16:21:28;99863.91;;;21.05;100.00
13367;BME280;6752;52.612;13.630;2023-07-31T16:26:31;99862.03;;;20.96;100.00
13367;BME280;6752;52.612;13.630;2023-07-31T16:31:33;99873.80;;;20.90;100.00
13367;BME280;6752;52.612;13.630;2023-07-31T16:36:35;99878.47;;;20.86;100.00
13367;BME280;6752;52.612;13.630;2023-07-31T16:41:38;99880.59;;;20.82;100.00
13367;BME280;6752;52.612;13.630;2023-07-31T16:46:40;99870.81;;;20.73;100.00
13367;BME280;6752;52.612;13.630;2023-07-31T16:51:42;99859.58;;;20.81;100.00
13367;BME280;6752;52.612;13.630;2023-07-31T16:56:45;99849.17;;;20.89;100.00
13367;BME280;6752;52.612;13.630;2023-07-31T17:01:47;99839.68;;;20.92;100.00
13367;BME280;6752;52.612;13.630;2023-07-31T17:06:49;99840.19;;;20.94;100.00
13367;BME280;6752;52.612;13.630;2023-07-31T17:11:52;99832.95;;;20.96;100.00
13367;BME280;6752;52.612;13.630;2023-07-31T17:16:54;99831.23;;;21.04;100.00
13367;BME280;6752;52.612;13.630;2023-07-31T17:21:56;99826.48;;;21.07;100.00
13367;BME280;6752;52.612;13.630;2023-07-31T17:26:59;99824.52;;;21.01;100.00
13367;BME280;6752;52.612;13.630;2023-07-31T17:32:01;99837.11;;;20.96;100.00
13367;BME280;6752;52.612;13.630;2023-07-31T17:37:04;99841.00;;;20.95;100.00
13367;BME280;6752;52.612;13.630;2023-07-31T17:42:06;99854.42;;;20.83;100.00
13367;BME280;6752;52.612;13.630;2023-07-31T17:47:08;99873.79;;;19.84;100.00
13367;BME280;6752;52.612;13.630;2023-07-31T17:52:11;99872.37;;;19.40;100.00
13367;BME280;6752;52.612;13.630;2023-07-31T17:57:13;99865.45;;;19.11;100.00
13367;BME280;6752;52.612;13.630;2023-07-31T18:02:15;99849.18;;;19.10;100.00
13367;BME280;6752;52.612;13.630;2023-07-31T18:07:18;99835.89;;;19.12;100.00
13367;BME280;6752;52.612;13.630;2023-07-31T18:12:20;99844.12;;;19.17;100.00
13367;BME280;6752;52.612;13.630;2023-07-31T18:17:22;99838.05;;;19.15;100.00
13367;BME280;6752;52.612;13.630;2023-07-31T18:22:25;99835.84;;;19.17;100.00
13367;BME280;6752;52.612;13.630;2023-07-31T18:27:27;99837.17;;;19.29;100.00
13367;BME280;6752;52.612;13.630;2023-07-31T18:32:29;99841.20;;;19.37;100.00
13367;BME280;6752;52.612;13.630;2023-07-31T18:37:32;99842.16;;;19.36;100.00
13367;BME280;6752;52.612;13.630;2023-07-31T18:42:34;99828.02;;;19.03;100.00
13367;BME280;6752;52.612;13.630;2023-07-31T18:47:37;99827.05;;;19.03;100.00
13367;BME280;6752;52.612;13.630;2023-07-31T18:52:39;99829.27;;;19.22;100.00
13367;BME280;6752;52.612;13.630;2023-07-31T18:57:41;99835.27;;;19.08;100.00
13367;BME280;6752;52.612;13.630;2023-07-31T19:02:44;99822.72;;;19.06;100.00
13367;BME280;6752;52.612;13.630;2023-07-31T19:07:46;99820.26;;;19.05;100.00
13367;BME280;6752;52.612;13.630;2023-07-31T19:12:48;99809.61;;;19.14;100.00
13367;BME280;6752;52.612;13.630;2023-07-31T19:17:51;99808.79;;;19.14;100.00
13367;BME280;6752;52.612;13.630;2023-07-31T19:22:53;99806.54;;;19.19;100.00
13367;BME280;6752;52.612;13.630;2023-07-31T19:27:55;99802.00;;;19.16;100.00
13367;BME280;6752;52.612;13.630;2023-07-31T19:32:58;99799.52;;;19.17;100.00
13367;BME280;6752;52.612;13.630;2023-07-31T19:38:00;99792.12;;;19.03;100.00
13367;BME280;6752;52.612;13.630;2023-07-31T19:43:02;99785.14;;;19.08;100.00
13367;BME280;6752;52.612;13.630;2023-07-31T19:48:05;99779.70;;;19.03;100.00
13367;BME280;6752;52.612;13.630;2023-07-31T19:53:07;99782.16;;;18.95;100.00
13367;BME280;6752;52.612;13.630;2023-07-31T19:58:10;99776.92;;;18.84;100.00
13367;BME280;6752;52.612;13.630;2023-07-31T20:03:12;99775.72;;;18.81;100.00
13367;BME280;6752;52.612;13.630;2023-07-31T20:08:14;99767.89;;;18.88;100.00
13367;BME280;6752;52.612;13.630;2023-07-31T20:13:17;99764.23;;;18.83;100.00
13367;BME280;6752;52.612;13.630;2023-07-31T20:18:20;99756.66;;;18.82;100.00
13367;BME280;6752;52.612;13.630;2023-07-31T20:23:22;99760.84;;;18.79;100.00
13367;BME280;6752;52.612;13.630;2023-07-31T20:28:25;99745.80;;;18.78;100.00
13367;BME280;6752;52.612;13.630;2023-07-31T20:33:27;99742.75;;;18.80;100.00
13367;BME280;6752;52.612;13.630;2023-07-31T20:38:29;99721.93;;;18.78;100.00
13367;BME280;6752;52.612;13.630;2023-07-31T20:43:32;99720.94;;;18.72;100.00
13367;BME280;6752;52.612;13.630;2023-07-31T20:48:34;99708.17;;;18.76;100.00
13367;BME280;6752;52.612;13.630;2023-07-31T20:53:36;99709.14;;;18.75;100.00
13367;BME280;6752;52.612;13.630;2023-07-31T20:58:39;99708.34;;;18.60;100.00
13367;BME280;6752;52.612;13.630;2023-07-31T21:03:41;99697.78;;;18.67;100.00
13367;BME280;6752;52.612;13.630;2023-07-31T21:08:44;99703.24;;;18.51;100.00
13367;BME280;6752;52.612;13.630;2023-07-31T21:13:46;99686.53;;;18.52;100.00
13367;BME280;6752;52.612;13.630;2023-07-31T21:18:48;99678.23;;;18.43;100.00
13367;BME280;6752;52.612;13.630;2023-07-31T21:23:51;99675.59;;;18.35;100.00
13367;BME280;6752;52.612;13.630;2023-07-31T21:28:53;99672.98;;;18.34;100.00
13367;BME280;6752;52.612;13.630;2023-07-31T21:33:55;99666.41;;;18.39;100.00
13367;BME280;6752;52.612;13.630;2023-07-31T21:38:58;99654.34;;;18.35;100.00
13367;BME280;6752;52.612;13.630;2023-07-31T21:44:00;99652.22;;;18.30;100.00
13367;BME280;6752;52.612;13.630;2023-07-31T21:49:02;99641.03;;;18.31;100.00
13367;BME280;6752;52.612;13.630;2023-07-31T21:54:05;99631.94;;;18.30;100.00
13367;BME280;6752;52.612;13.630;2023-07-31T21:59:07;99628.92;;;18.29;100.00
13367;BME280;6752;52.612;13.630;2023-07-31T22:04:09;99623.70;;;18.28;100.00
13367;BME280;6752;52.612;13.630;2023-07-31T22:09:12;99627.69;;;18.28;100.00
13367;BME280;6752;52.612;13.630;2023-07-31T22:14:14;99616.53;;;18.36;100.00
13367;BME280;6752;52.612;13.630;2023-07-31T22:19:17;99616.51;;;18.29;100.00
13367;BME280;6752;52.612;13.630;2023-07-31T22:24:19;99614.90;;;18.35;100.00
13367;BME280;6752;52.612;13.630;2023-07-31T22:29:21;99607.33;;;18.34;100.00
13367;BME280;6752;52.612;13.630;2023-07-31T22:34:24;99590.11;;;18.32;100.00
13367;BME280;6752;52.612;13.630;2023-07-31T22:39:26;99573.38;;;18.26;100.00
13367;BME280;6752;52.612;13.630;2023-07-31T22:44:28;99560.07;;;18.31;100.00
13367;BME280;6752;52.612;13.630;2023-07-31T22:49:31;99551.45;;;18.35;100.00
13367;BME280;6752;52.612;13.630;2023-07-31T22:54:33;99546.61;;;18.36;100.00
13367;BME280;6752;52.612;13.630;2023-07-31T22:59:35;99539.77;;;18.40;100.00
13367;BME280;6752;52.612;13.630;2023-07-31T23:04:38;99529.15;;;18.41;100.00
13367;BME280;6752;52.612;13.630;2023-07-31T23:09:40;99522.77;;;18.43;100.00
13367;BME280;6752;52.612;13.630;2023-07-31T23:14:42;99517.51;;;18.44;100.00
13367;BME280;6752;52.612;13.630;2023-07-31T23:19:45;99510.70;;;18.48;100.00
13367;BME280;6752;52.612;13.630;2023-07-31T23:24:47;99511.38;;;18.49;100.00
13367;BME280;6752;52.612;13.630;2023-07-31T23:29:50;99495.12;;;18.48;100.00
13367;BME280;6752;52.612;13.630;2023-07-31T23:34:52;99482.25;;;18.41;100.00
13367;BME280;6752;52.612;13.630;2023-07-31T23:39:54;99471.98;;;18.37;100.00
13367;BME280;6752;52.612;13.630;2023-07-31T23:44:57;99472.16;;;18.27;100.00
13367;BME280;6752;52.612;13.630;2023-07-31T23:49:59;99459.39;;;18.21;100.00
13367;BME280;6752;52.612;13.630;2023-07-31T23:55:01;99458.45;;;18.12;100.00
